Portada
METAR-TAF:

METAR-TAF

Aeroports :

Bangkok, Tailàndia

latitud: 13-54-45N, longitud: 100-36-24E, altitud: 4 m

Observació

L'informe es va fer fa 26 minuts, a les 18:30 UTC
Vent 6 kt del Oest/Sud-Oest
Temperatura 27°C
Humitat 84%
Pressió 1010 hPa
Visibilitat 10 km o més
Escasses núvols a una alçada de 3000 ft

METAR: VTBD 261830Z 25006KT 9999 FEW030 27/24 Q1010 NOSIG

Hora: 01:56 (18:56 UTC)

Pronòstic

L'informe es va fer fa 1 hora i 56 minuts, a les 17:00 UTC
Pronòstic vàlid del 26 a les 18 UTC al 27 a les 24 UTC
Vent 8 kt del Sud
Visibilitat 10 km o més
Escasses núvols a una alçada de 3000 ft
Evolucionant progressivament
l' 26 a les 22 UTC al 26 a les 24 UTC
Vent 5 kt del Nord
Evolucionant progressivament
l' 27 a les 02 UTC al 27 a les 04 UTC
Vent 8 kt del Sud/Sud-Oest
Evolucionant progressivament
l' 27 a les 20 UTC al 27 a les 22 UTC
Vent 5 kt del Oest

TAF: VTBD 261700Z 2618/2724 19008KT 9999 FEW030 BECMG 2622/2624 36005KT BECMG 2702/2704 20008KT BECMG 2720/2722 28005KT

Observacions i pronòstics meteorològics de més de 4000 aeroports (METAR i TAF).

Les estacions disponibles són els punts grocs i vermells al mapa.

Posi el ratolí al punt desitjat per veure el nom de l'estació.

Feu clic per veure les observacions i els pronòstics meteorològics.

Per canviar el mapa: feu clic els botons verds amb una creu de color negre per apropar; al botó verd amb un guió per allunyar la imatge; o en les fletxes verdes per a mapes adjacents.


METAR-TAF: